sensor_id;sensor_type;location;lat;lon;timestamp;P1;durP1;ratioP1;P2;durP2;ratioP2
44810;SDS011;30526;52.184;4.476;2023-11-21T00:00:12;34.95;;;31.38;;
44810;SDS011;30526;52.184;4.476;2023-11-21T00:02:39;33.47;;;30.73;;
44810;SDS011;30526;52.184;4.476;2023-11-21T00:05:09;33.42;;;30.13;;
44810;SDS011;30526;52.184;4.476;2023-11-21T00:07:36;34.00;;;30.55;;
44810;SDS011;30526;52.184;4.476;2023-11-21T00:10:02;34.63;;;31.23;;
44810;SDS011;30526;52.184;4.476;2023-11-21T00:12:30;34.22;;;30.75;;
44810;SDS011;30526;52.184;4.476;2023-11-21T00:14:56;35.40;;;31.83;;
44810;SDS011;30526;52.184;4.476;2023-11-21T00:17:22;34.92;;;31.35;;
44810;SDS011;30526;52.184;4.476;2023-11-21T00:19:49;34.38;;;31.55;;
44810;SDS011;30526;52.184;4.476;2023-11-21T00:22:17;34.83;;;31.80;;
44810;SDS011;30526;52.184;4.476;2023-11-21T00:24:43;37.05;;;33.20;;
44810;SDS011;30526;52.184;4.476;2023-11-21T00:27:09;37.75;;;34.03;;
44810;SDS011;30526;52.184;4.476;2023-11-21T00:29:35;37.38;;;33.95;;
44810;SDS011;30526;52.184;4.476;2023-11-21T00:32:01;36.22;;;32.67;;
44810;SDS011;30526;52.184;4.476;2023-11-21T00:34:27;35.40;;;32.50;;
44810;SDS011;30526;52.184;4.476;2023-11-21T00:36:53;37.00;;;33.45;;
44810;SDS011;30526;52.184;4.476;2023-11-21T00:39:19;36.03;;;33.25;;
44810;SDS011;30526;52.184;4.476;2023-11-21T00:41:45;36.72;;;33.83;;
44810;SDS011;30526;52.184;4.476;2023-11-21T00:44:11;37.13;;;33.63;;
44810;SDS011;30526;52.184;4.476;2023-11-21T00:46:37;37.78;;;34.05;;
44810;SDS011;30526;52.184;4.476;2023-11-21T00:49:03;37.67;;;34.28;;
44810;SDS011;30526;52.184;4.476;2023-11-21T00:51:30;38.03;;;34.47;;
44810;SDS011;30526;52.184;4.476;2023-11-21T00:53:56;37.05;;;34.25;;
44810;SDS011;30526;52.184;4.476;2023-11-21T00:56:22;37.97;;;34.88;;
44810;SDS011;30526;52.184;4.476;2023-11-21T00:58:49;38.05;;;34.60;;
44810;SDS011;30526;52.184;4.476;2023-11-21T01:01:17;37.40;;;33.92;;
44810;SDS011;30526;52.184;4.476;2023-11-21T01:03:44;37.23;;;34.20;;
44810;SDS011;30526;52.184;4.476;2023-11-21T01:06:11;39.33;;;35.65;;
44810;SDS011;30526;52.184;4.476;2023-11-21T01:08:37;40.95;;;36.55;;
44810;SDS011;30526;52.184;4.476;2023-11-21T01:11:03;40.40;;;36.28;;
44810;SDS011;30526;52.184;4.476;2023-11-21T01:13:29;38.80;;;35.13;;
44810;SDS011;30526;52.184;4.476;2023-11-21T01:15:56;39.08;;;35.38;;
44810;SDS011;30526;52.184;4.476;2023-11-21T01:18:22;37.92;;;34.47;;
44810;SDS011;30526;52.184;4.476;2023-11-21T01:20:50;37.65;;;34.45;;
44810;SDS011;30526;52.184;4.476;2023-11-21T01:23:18;36.47;;;33.65;;
44810;SDS011;30526;52.184;4.476;2023-11-21T01:25:44;36.53;;;33.53;;
44810;SDS011;30526;52.184;4.476;2023-11-21T01:28:10;36.42;;;33.45;;
44810;SDS011;30526;52.184;4.476;2023-11-21T01:30:36;35.65;;;32.95;;
44810;SDS011;30526;52.184;4.476;2023-11-21T01:33:02;34.13;;;31.63;;
44810;SDS011;30526;52.184;4.476;2023-11-21T01:35:28;34.97;;;32.35;;
44810;SDS011;30526;52.184;4.476;2023-11-21T01:37:55;35.28;;;32.30;;
44810;SDS011;30526;52.184;4.476;2023-11-21T01:40:21;35.83;;;32.88;;
44810;SDS011;30526;52.184;4.476;2023-11-21T01:42:47;35.30;;;32.58;;
44810;SDS011;30526;52.184;4.476;2023-11-21T01:45:13;35.00;;;32.05;;
44810;SDS011;30526;52.184;4.476;2023-11-21T01:47:39;35.85;;;32.60;;
44810;SDS011;30526;52.184;4.476;2023-11-21T01:50:07;35.10;;;32.53;;
44810;SDS011;30526;52.184;4.476;2023-11-21T01:52:34;33.75;;;31.42;;
44810;SDS011;30526;52.184;4.476;2023-11-21T01:55:01;35.20;;;32.25;;
44810;SDS011;30526;52.184;4.476;2023-11-21T01:57:27;34.70;;;32.17;;
44810;SDS011;30526;52.184;4.476;2023-11-21T01:59:54;35.83;;;33.05;;
44810;SDS011;30526;52.184;4.476;2023-11-21T02:02:21;35.65;;;33.03;;
44810;SDS011;30526;52.184;4.476;2023-11-21T02:04:47;37.13;;;34.03;;
44810;SDS011;30526;52.184;4.476;2023-11-21T02:07:13;35.80;;;33.10;;
44810;SDS011;30526;52.184;4.476;2023-11-21T02:09:39;36.65;;;34.05;;
44810;SDS011;30526;52.184;4.476;2023-11-21T02:12:07;36.85;;;33.78;;
44810;SDS011;30526;52.184;4.476;2023-11-21T02:14:35;37.08;;;34.15;;
44810;SDS011;30526;52.184;4.476;2023-11-21T02:17:02;36.53;;;33.63;;
44810;SDS011;30526;52.184;4.476;2023-11-21T02:19:28;35.83;;;33.00;;
44810;SDS011;30526;52.184;4.476;2023-11-21T02:21:58;36.58;;;33.72;;
44810;SDS011;30526;52.184;4.476;2023-11-21T02:24:28;37.03;;;34.42;;
44810;SDS011;30526;52.184;4.476;2023-11-21T02:26:54;36.53;;;33.50;;
44810;SDS011;30526;52.184;4.476;2023-11-21T02:29:21;36.10;;;33.60;;
44810;SDS011;30526;52.184;4.476;2023-11-21T02:31:52;36.67;;;33.88;;
44810;SDS011;30526;52.184;4.476;2023-11-21T02:34:19;35.92;;;33.53;;
44810;SDS011;30526;52.184;4.476;2023-11-21T02:36:45;36.20;;;33.80;;
44810;SDS011;30526;52.184;4.476;2023-11-21T02:39:12;35.60;;;33.25;;
44810;SDS011;30526;52.184;4.476;2023-11-21T02:41:38;36.83;;;33.92;;
44810;SDS011;30526;52.184;4.476;2023-11-21T02:44:07;36.55;;;33.80;;
44810;SDS011;30526;52.184;4.476;2023-11-21T02:46:33;37.38;;;34.55;;
44810;SDS011;30526;52.184;4.476;2023-11-21T02:49:00;37.40;;;34.90;;
44810;SDS011;30526;52.184;4.476;2023-11-21T02:51:26;37.13;;;34.40;;
44810;SDS011;30526;52.184;4.476;2023-11-21T02:53:52;37.65;;;34.58;;
44810;SDS011;30526;52.184;4.476;2023-11-21T02:56:19;37.58;;;34.75;;
44810;SDS011;30526;52.184;4.476;2023-11-21T02:58:45;38.10;;;34.70;;
44810;SDS011;30526;52.184;4.476;2023-11-21T03:01:11;37.40;;;34.65;;
44810;SDS011;30526;52.184;4.476;2023-11-21T03:03:38;36.67;;;34.07;;
44810;SDS011;30526;52.184;4.476;2023-11-21T03:06:05;37.33;;;34.10;;
44810;SDS011;30526;52.184;4.476;2023-11-21T03:08:31;38.75;;;35.00;;
44810;SDS011;30526;52.184;4.476;2023-11-21T03:10:57;38.28;;;35.25;;
44810;SDS011;30526;52.184;4.476;2023-11-21T03:13:23;39.08;;;35.72;;
44810;SDS011;30526;52.184;4.476;2023-11-21T03:15:49;36.20;;;33.38;;
44810;SDS011;30526;52.184;4.476;2023-11-21T03:18:18;37.28;;;34.67;;
44810;SDS011;30526;52.184;4.476;2023-11-21T03:20:58;38.45;;;35.45;;
44810;SDS011;30526;52.184;4.476;2023-11-21T03:23:44;37.13;;;34.40;;
44810;SDS011;30526;52.184;4.476;2023-11-21T03:26:13;36.78;;;34.22;;
44810;SDS011;30526;52.184;4.476;2023-11-21T03:28:39;38.63;;;35.03;;
44810;SDS011;30526;52.184;4.476;2023-11-21T03:31:05;37.95;;;35.25;;
44810;SDS011;30526;52.184;4.476;2023-11-21T03:33:32;37.80;;;34.88;;
44810;SDS011;30526;52.184;4.476;2023-11-21T03:35:58;37.55;;;34.83;;
44810;SDS011;30526;52.184;4.476;2023-11-21T03:38:24;39.05;;;35.80;;
44810;SDS011;30526;52.184;4.476;2023-11-21T03:40:50;39.13;;;36.22;;
44810;SDS011;30526;52.184;4.476;2023-11-21T03:43:16;39.00;;;36.10;;
44810;SDS011;30526;52.184;4.476;2023-11-21T03:45:42;38.80;;;35.95;;
44810;SDS011;30526;52.184;4.476;2023-11-21T03:48:08;38.80;;;35.60;;
44810;SDS011;30526;52.184;4.476;2023-11-21T03:50:34;39.17;;;36.05;;
44810;SDS011;30526;52.184;4.476;2023-11-21T03:53:00;38.40;;;35.50;;
44810;SDS011;30526;52.184;4.476;2023-11-21T03:55:26;38.65;;;35.47;;
44810;SDS011;30526;52.184;4.476;2023-11-21T03:57:52;38.92;;;36.08;;
44810;SDS011;30526;52.184;4.476;2023-11-21T04:00:18;39.65;;;36.38;;
44810;SDS011;30526;52.184;4.476;2023-11-21T04:02:47;38.72;;;35.97;;
44810;SDS011;30526;52.184;4.476;2023-11-21T04:05:13;39.40;;;36.47;;
44810;SDS011;30526;52.184;4.476;2023-11-21T04:07:39;39.33;;;36.53;;
44810;SDS011;30526;52.184;4.476;2023-11-21T04:10:06;37.78;;;35.00;;
44810;SDS011;30526;52.184;4.476;2023-11-21T04:12:34;39.10;;;35.92;;
44810;SDS011;30526;52.184;4.476;2023-11-21T04:15:00;37.53;;;35.00;;
44810;SDS011;30526;52.184;4.476;2023-11-21T04:17:26;38.20;;;35.10;;
44810;SDS011;30526;52.184;4.476;2023-11-21T04:19:52;37.90;;;35.30;;
44810;SDS011;30526;52.184;4.476;2023-11-21T04:22:18;37.95;;;35.00;;
44810;SDS011;30526;52.184;4.476;2023-11-21T04:24:44;38.25;;;35.38;;
44810;SDS011;30526;52.184;4.476;2023-11-21T04:27:10;38.45;;;35.70;;
44810;SDS011;30526;52.184;4.476;2023-11-21T04:29:35;38.42;;;35.55;;
44810;SDS011;30526;52.184;4.476;2023-11-21T04:32:01;38.05;;;35.25;;
44810;SDS011;30526;52.184;4.476;2023-11-21T04:34:28;37.67;;;35.08;;
44810;SDS011;30526;52.184;4.476;2023-11-21T04:36:57;39.03;;;36.13;;
44810;SDS011;30526;52.184;4.476;2023-11-21T04:39:23;39.40;;;36.45;;
44810;SDS011;30526;52.184;4.476;2023-11-21T04:41:49;40.38;;;37.42;;
44810;SDS011;30526;52.184;4.476;2023-11-21T04:44:15;40.00;;;37.13;;
44810;SDS011;30526;52.184;4.476;2023-11-21T04:46:42;39.40;;;36.70;;
44810;SDS011;30526;52.184;4.476;2023-11-21T04:49:08;40.97;;;37.88;;
44810;SDS011;30526;52.184;4.476;2023-11-21T04:51:34;41.38;;;38.17;;
44810;SDS011;30526;52.184;4.476;2023-11-21T04:54:01;41.60;;;38.10;;
44810;SDS011;30526;52.184;4.476;2023-11-21T04:56:27;41.70;;;38.58;;
44810;SDS011;30526;52.184;4.476;2023-11-21T04:58:54;42.03;;;39.10;;
44810;SDS011;30526;52.184;4.476;2023-11-21T05:01:20;41.90;;;38.90;;
44810;SDS011;30526;52.184;4.476;2023-11-21T05:03:46;42.40;;;39.15;;
44810;SDS011;30526;52.184;4.476;2023-11-21T05:08:40;42.63;;;39.60;;
44810;SDS011;30526;52.184;4.476;2023-11-21T05:11:06;43.58;;;39.80;;
44810;SDS011;30526;52.184;4.476;2023-11-21T05:13:36;45.22;;;41.83;;
44810;SDS011;30526;52.184;4.476;2023-11-21T05:16:02;45.50;;;42.00;;
44810;SDS011;30526;52.184;4.476;2023-11-21T05:18:32;45.92;;;42.63;;
44810;SDS011;30526;52.184;4.476;2023-11-21T05:20:59;45.38;;;42.08;;
44810;SDS011;30526;52.184;4.476;2023-11-21T05:23:25;46.72;;;43.17;;
44810;SDS011;30526;52.184;4.476;2023-11-21T05:25:51;46.22;;;42.72;;
44810;SDS011;30526;52.184;4.476;2023-11-21T05:28:17;45.78;;;42.17;;
44810;SDS011;30526;52.184;4.476;2023-11-21T05:30:43;46.40;;;42.90;;
44810;SDS011;30526;52.184;4.476;2023-11-21T05:33:09;46.35;;;43.13;;
44810;SDS011;30526;52.184;4.476;2023-11-21T05:35:35;46.25;;;42.53;;
44810;SDS011;30526;52.184;4.476;2023-11-21T05:38:01;45.25;;;42.35;;
44810;SDS011;30526;52.184;4.476;2023-11-21T05:40:27;46.63;;;43.53;;
44810;SDS011;30526;52.184;4.476;2023-11-21T05:45:21;41.80;;;38.50;;
44810;SDS011;30526;52.184;4.476;2023-11-21T05:47:47;42.08;;;39.05;;
44810;SDS011;30526;52.184;4.476;2023-11-21T05:50:14;43.20;;;39.85;;
44810;SDS011;30526;52.184;4.476;2023-11-21T05:55:06;44.72;;;41.72;;
44810;SDS011;30526;52.184;4.476;2023-11-21T05:57:36;45.00;;;41.77;;
44810;SDS011;30526;52.184;4.476;2023-11-21T06:00:06;46.38;;;43.15;;
44810;SDS011;30526;52.184;4.476;2023-11-21T06:02:51;40.08;;;37.42;;
44810;SDS011;30526;52.184;4.476;2023-11-21T06:05:18;40.88;;;37.85;;
44810;SDS011;30526;52.184;4.476;2023-11-21T06:07:45;40.97;;;37.72;;
44810;SDS011;30526;52.184;4.476;2023-11-21T06:10:11;45.20;;;41.85;;
44810;SDS011;30526;52.184;4.476;2023-11-21T06:12:39;45.78;;;42.45;;
44810;SDS011;30526;52.184;4.476;2023-11-21T06:15:08;45.10;;;41.97;;
44810;SDS011;30526;52.184;4.476;2023-11-21T06:17:35;41.83;;;38.65;;
44810;SDS011;30526;52.184;4.476;2023-11-21T06:20:05;42.53;;;39.35;;
44810;SDS011;30526;52.184;4.476;2023-11-21T06:22:44;44.85;;;40.38;;
44810;SDS011;30526;52.184;4.476;2023-11-21T06:25:11;42.95;;;39.65;;
44810;SDS011;30526;52.184;4.476;2023-11-21T06:27:47;44.88;;;41.13;;
44810;SDS011;30526;52.184;4.476;2023-11-21T06:30:13;45.13;;;41.63;;
44810;SDS011;30526;52.184;4.476;2023-11-21T06:32:40;44.63;;;41.10;;
44810;SDS011;30526;52.184;4.476;2023-11-21T06:35:06;46.00;;;42.23;;
44810;SDS011;30526;52.184;4.476;2023-11-21T06:37:36;44.63;;;41.05;;
44810;SDS011;30526;52.184;4.476;2023-11-21T06:40:02;45.08;;;41.08;;
44810;SDS011;30526;52.184;4.476;2023-11-21T06:42:32;43.78;;;40.55;;
44810;SDS011;30526;52.184;4.476;2023-11-21T06:45:03;44.95;;;41.13;;
44810;SDS011;30526;52.184;4.476;2023-11-21T06:47:29;43.67;;;40.25;;
44810;SDS011;30526;52.184;4.476;2023-11-21T06:49:55;45.08;;;40.50;;
44810;SDS011;30526;52.184;4.476;2023-11-21T06:52:22;43.22;;;38.72;;
44810;SDS011;30526;52.184;4.476;2023-11-21T06:54:48;43.00;;;39.25;;
44810;SDS011;30526;52.184;4.476;2023-11-21T06:57:17;42.47;;;38.92;;
44810;SDS011;30526;52.184;4.476;2023-11-21T06:59:43;41.08;;;37.38;;
44810;SDS011;30526;52.184;4.476;2023-11-21T07:02:09;43.10;;;38.78;;
44810;SDS011;30526;52.184;4.476;2023-11-21T07:04:35;42.13;;;37.85;;
44810;SDS011;30526;52.184;4.476;2023-11-21T07:07:02;39.63;;;36.30;;
44810;SDS011;30526;52.184;4.476;2023-11-21T07:09:28;40.30;;;36.65;;
44810;SDS011;30526;52.184;4.476;2023-11-21T07:11:54;41.40;;;38.03;;
44810;SDS011;30526;52.184;4.476;2023-11-21T07:14:21;41.85;;;37.40;;
44810;SDS011;30526;52.184;4.476;2023-11-21T07:16:47;42.67;;;38.33;;
44810;SDS011;30526;52.184;4.476;2023-11-21T07:19:13;41.60;;;37.80;;
44810;SDS011;30526;52.184;4.476;2023-11-21T07:21:39;40.40;;;37.10;;
44810;SDS011;30526;52.184;4.476;2023-11-21T07:24:06;38.63;;;35.43;;
44810;SDS011;30526;52.184;4.476;2023-11-21T07:26:32;39.92;;;35.88;;
44810;SDS011;30526;52.184;4.476;2023-11-21T07:28:58;36.13;;;33.33;;
44810;SDS011;30526;52.184;4.476;2023-11-21T07:31:25;34.78;;;31.45;;
44810;SDS011;30526;52.184;4.476;2023-11-21T07:33:51;34.25;;;31.10;;
44810;SDS011;30526;52.184;4.476;2023-11-21T07:36:17;33.23;;;30.83;;
44810;SDS011;30526;52.184;4.476;2023-11-21T07:38:44;34.10;;;30.92;;
44810;SDS011;30526;52.184;4.476;2023-11-21T07:41:10;34.13;;;30.88;;
44810;SDS011;30526;52.184;4.476;2023-11-21T07:43:36;33.60;;;31.03;;
44810;SDS011;30526;52.184;4.476;2023-11-21T07:46:03;33.63;;;30.87;;
44810;SDS011;30526;52.184;4.476;2023-11-21T07:48:32;32.63;;;29.77;;
44810;SDS011;30526;52.184;4.476;2023-11-21T07:50:59;32.65;;;29.85;;
44810;SDS011;30526;52.184;4.476;2023-11-21T07:53:25;31.80;;;28.70;;
44810;SDS011;30526;52.184;4.476;2023-11-21T07:55:53;34.30;;;31.40;;
44810;SDS011;30526;52.184;4.476;2023-11-21T07:58:19;34.78;;;31.48;;
44810;SDS011;30526;52.184;4.476;2023-11-21T08:00:45;35.67;;;31.95;;
44810;SDS011;30526;52.184;4.476;2023-11-21T08:03:13;33.35;;;30.50;;
44810;SDS011;30526;52.184;4.476;2023-11-21T08:05:39;33.15;;;30.08;;
44810;SDS011;30526;52.184;4.476;2023-11-21T08:08:05;33.60;;;30.10;;
44810;SDS011;30526;52.184;4.476;2023-11-21T08:10:31;32.45;;;29.02;;
44810;SDS011;30526;52.184;4.476;2023-11-21T08:12:57;32.03;;;28.63;;
44810;SDS011;30526;52.184;4.476;2023-11-21T08:15:23;31.70;;;28.55;;
44810;SDS011;30526;52.184;4.476;2023-11-21T08:17:50;29.10;;;26.80;;
44810;SDS011;30526;52.184;4.476;2023-11-21T08:20:16;30.15;;;27.10;;
44810;SDS011;30526;52.184;4.476;2023-11-21T08:22:43;27.75;;;25.38;;
44810;SDS011;30526;52.184;4.476;2023-11-21T08:25:09;27.35;;;25.25;;
44810;SDS011;30526;52.184;4.476;2023-11-21T08:27:35;28.20;;;26.00;;
44810;SDS011;30526;52.184;4.476;2023-11-21T08:30:02;26.10;;;23.85;;
44810;SDS011;30526;52.184;4.476;2023-11-21T08:32:28;24.88;;;23.13;;
44810;SDS011;30526;52.184;4.476;2023-11-21T08:34:58;26.15;;;24.38;;
44810;SDS011;30526;52.184;4.476;2023-11-21T08:37:24;25.50;;;23.40;;
44810;SDS011;30526;52.184;4.476;2023-11-21T08:39:52;26.73;;;24.05;;
44810;SDS011;30526;52.184;4.476;2023-11-21T08:42:18;24.90;;;23.10;;
44810;SDS011;30526;52.184;4.476;2023-11-21T08:44:44;24.73;;;22.92;;
44810;SDS011;30526;52.184;4.476;2023-11-21T08:47:10;23.10;;;21.23;;
44810;SDS011;30526;52.184;4.476;2023-11-21T08:49:36;23.45;;;21.63;;
44810;SDS011;30526;52.184;4.476;2023-11-21T08:52:03;23.70;;;22.10;;
44810;SDS011;30526;52.184;4.476;2023-11-21T08:54:30;22.00;;;20.50;;
44810;SDS011;30526;52.184;4.476;2023-11-21T08:56:56;22.75;;;21.02;;
44810;SDS011;30526;52.184;4.476;2023-11-21T08:59:23;21.00;;;19.55;;
44810;SDS011;30526;52.184;4.476;2023-11-21T09:01:49;22.17;;;20.73;;
44810;SDS011;30526;52.184;4.476;2023-11-21T09:04:15;21.83;;;20.00;;
44810;SDS011;30526;52.184;4.476;2023-11-21T09:06:41;21.60;;;20.10;;
44810;SDS011;30526;52.184;4.476;2023-11-21T09:09:08;21.33;;;19.73;;
44810;SDS011;30526;52.184;4.476;2023-11-21T09:14:01;18.47;;;17.17;;
44810;SDS011;30526;52.184;4.476;2023-11-21T09:16:28;17.88;;;16.52;;
44810;SDS011;30526;52.184;4.476;2023-11-21T09:18:54;17.77;;;16.52;;
44810;SDS011;30526;52.184;4.476;2023-11-21T09:21:20;18.00;;;16.50;;
44810;SDS011;30526;52.184;4.476;2023-11-21T09:23:46;17.48;;;16.00;;
44810;SDS011;30526;52.184;4.476;2023-11-21T09:26:13;18.55;;;15.23;;
44810;SDS011;30526;52.184;4.476;2023-11-21T09:28:41;18.17;;;14.35;;
44810;SDS011;30526;52.184;4.476;2023-11-21T09:31:11;16.08;;;14.82;;
44810;SDS011;30526;52.184;4.476;2023-11-21T09:33:37;16.85;;;15.25;;
44810;SDS011;30526;52.184;4.476;2023-11-21T09:36:03;16.35;;;14.95;;
44810;SDS011;30526;52.184;4.476;2023-11-21T09:38:30;16.13;;;14.60;;
44810;SDS011;30526;52.184;4.476;2023-11-21T09:40:56;16.38;;;14.95;;
44810;SDS011;30526;52.184;4.476;2023-11-21T09:43:23;15.88;;;14.43;;
44810;SDS011;30526;52.184;4.476;2023-11-21T09:45:56;15.98;;;14.63;;
44810;SDS011;30526;52.184;4.476;2023-11-21T09:48:25;16.08;;;14.50;;
44810;SDS011;30526;52.184;4.476;2023-11-21T09:50:51;15.50;;;13.95;;
44810;SDS011;30526;52.184;4.476;2023-11-21T09:53:21;14.35;;;13.05;;
44810;SDS011;30526;52.184;4.476;2023-11-21T09:55:50;14.27;;;13.25;;
44810;SDS011;30526;52.184;4.476;2023-11-21T09:58:17;14.32;;;13.30;;
44810;SDS011;30526;52.184;4.476;2023-11-21T10:00:44;13.27;;;12.32;;
44810;SDS011;30526;52.184;4.476;2023-11-21T10:03:11;13.77;;;12.68;;
44810;SDS011;30526;52.184;4.476;2023-11-21T10:05:38;13.50;;;12.50;;
44810;SDS011;30526;52.184;4.476;2023-11-21T10:08:04;13.77;;;12.40;;
44810;SDS011;30526;52.184;4.476;2023-11-21T10:10:32;13.70;;;12.50;;
44810;SDS011;30526;52.184;4.476;2023-11-21T10:13:01;13.10;;;12.03;;
44810;SDS011;30526;52.184;4.476;2023-11-21T10:15:28;13.88;;;12.10;;
44810;SDS011;30526;52.184;4.476;2023-11-21T10:17:55;12.60;;;11.32;;
44810;SDS011;30526;52.184;4.476;2023-11-21T10:20:22;13.37;;;12.20;;
44810;SDS011;30526;52.184;4.476;2023-11-21T10:22:49;12.60;;;11.70;;
44810;SDS011;30526;52.184;4.476;2023-11-21T10:25:15;12.23;;;11.43;;
44810;SDS011;30526;52.184;4.476;2023-11-21T10:27:48;12.60;;;11.63;;
44810;SDS011;30526;52.184;4.476;2023-11-21T10:30:17;13.20;;;12.07;;
44810;SDS011;30526;52.184;4.476;2023-11-21T10:32:43;12.77;;;11.70;;
44810;SDS011;30526;52.184;4.476;2023-11-21T10:35:10;12.25;;;11.35;;
44810;SDS011;30526;52.184;4.476;2023-11-21T10:37:37;11.07;;;10.27;;
44810;SDS011;30526;52.184;4.476;2023-11-21T10:40:09;12.80;;;11.48;;
44810;SDS011;30526;52.184;4.476;2023-11-21T10:42:38;12.27;;;11.38;;
44810;SDS011;30526;52.184;4.476;2023-11-21T10:45:05;10.63;;;9.82;;
44810;SDS011;30526;52.184;4.476;2023-11-21T10:47:38;11.80;;;10.82;;
44810;SDS011;30526;52.184;4.476;2023-11-21T10:50:05;11.60;;;10.50;;
44810;SDS011;30526;52.184;4.476;2023-11-21T10:52:35;17.65;;;10.88;;
44810;SDS011;30526;52.184;4.476;2023-11-21T10:55:02;10.27;;;9.43;;
44810;SDS011;30526;52.184;4.476;2023-11-21T10:57:40;13.27;;;12.05;;
44810;SDS011;30526;52.184;4.476;2023-11-21T11:00:06;13.50;;;12.20;;
44810;SDS011;30526;52.184;4.476;2023-11-21T11:02:32;13.20;;;12.10;;
44810;SDS011;30526;52.184;4.476;2023-11-21T11:04:59;12.52;;;11.43;;
44810;SDS011;30526;52.184;4.476;2023-11-21T11:07:26;15.77;;;12.88;;
44810;SDS011;30526;52.184;4.476;2023-11-21T11:09:55;13.70;;;12.50;;
44810;SDS011;30526;52.184;4.476;2023-11-21T11:12:21;14.13;;;12.73;;
44810;SDS011;30526;52.184;4.476;2023-11-21T11:14:48;13.52;;;12.13;;
44810;SDS011;30526;52.184;4.476;2023-11-21T11:17:14;12.13;;;11.13;;
44810;SDS011;30526;52.184;4.476;2023-11-21T11:19:41;12.10;;;11.10;;
44810;SDS011;30526;52.184;4.476;2023-11-21T11:24:59;13.43;;;12.23;;
44810;SDS011;30526;52.184;4.476;2023-11-21T11:30:11;13.95;;;12.23;;
44810;SDS011;30526;52.184;4.476;2023-11-21T11:32:53;11.60;;;10.43;;
44810;SDS011;30526;52.184;4.476;2023-11-21T11:35:34;11.70;;;10.60;;
44810;SDS011;30526;52.184;4.476;2023-11-21T11:38:02;10.30;;;9.40;;
44810;SDS011;30526;52.184;4.476;2023-11-21T11:40:41;10.00;;;9.20;;
44810;SDS011;30526;52.184;4.476;2023-11-21T11:43:07;10.93;;;9.93;;
44810;SDS011;30526;52.184;4.476;2023-11-21T11:45:33;12.02;;;9.93;;
44810;SDS011;30526;52.184;4.476;2023-11-21T11:48:06;12.60;;;10.75;;
44810;SDS011;30526;52.184;4.476;2023-11-21T11:50:33;11.98;;;10.73;;
44810;SDS011;30526;52.184;4.476;2023-11-21T11:53:32;12.10;;;10.90;;
44810;SDS011;30526;52.184;4.476;2023-11-21T11:58:37;12.63;;;11.32;;
44810;SDS011;30526;52.184;4.476;2023-11-21T12:01:06;10.82;;;9.95;;
44810;SDS011;30526;52.184;4.476;2023-11-21T12:03:32;12.05;;;11.07;;
44810;SDS011;30526;52.184;4.476;2023-11-21T12:05:58;13.23;;;12.07;;
44810;SDS011;30526;52.184;4.476;2023-11-21T12:08:26;13.70;;;12.48;;
44810;SDS011;30526;52.184;4.476;2023-11-21T12:10:57;14.88;;;12.70;;
44810;SDS011;30526;52.184;4.476;2023-11-21T12:13:23;14.63;;;13.27;;
44810;SDS011;30526;52.184;4.476;2023-11-21T12:15:49;14.27;;;12.98;;
44810;SDS011;30526;52.184;4.476;2023-11-21T12:18:15;14.32;;;13.13;;
44810;SDS011;30526;52.184;4.476;2023-11-21T12:20:41;14.60;;;13.40;;
44810;SDS011;30526;52.184;4.476;2023-11-21T12:23:11;15.40;;;14.00;;
44810;SDS011;30526;52.184;4.476;2023-11-21T12:25:40;15.77;;;14.38;;
44810;SDS011;30526;52.184;4.476;2023-11-21T12:28:07;14.38;;;13.18;;
44810;SDS011;30526;52.184;4.476;2023-11-21T12:30:36;14.45;;;13.23;;
44810;SDS011;30526;52.184;4.476;2023-11-21T12:33:03;14.05;;;12.98;;
44810;SDS011;30526;52.184;4.476;2023-11-21T12:35:32;13.38;;;12.38;;
44810;SDS011;30526;52.184;4.476;2023-11-21T12:38:01;13.43;;;12.38;;
44810;SDS011;30526;52.184;4.476;2023-11-21T12:40:28;12.75;;;11.68;;
44810;SDS011;30526;52.184;4.476;2023-11-21T12:42:57;13.23;;;12.33;;
44810;SDS011;30526;52.184;4.476;2023-11-21T12:45:25;12.63;;;11.52;;
44810;SDS011;30526;52.184;4.476;2023-11-21T12:48:00;11.75;;;10.73;;
44810;SDS011;30526;52.184;4.476;2023-11-21T12:50:29;12.98;;;11.98;;
44810;SDS011;30526;52.184;4.476;2023-11-21T12:53:06;12.70;;;11.70;;
44810;SDS011;30526;52.184;4.476;2023-11-21T12:55:37;13.07;;;11.98;;
44810;SDS011;30526;52.184;4.476;2023-11-21T12:58:04;14.10;;;12.90;;
44810;SDS011;30526;52.184;4.476;2023-11-21T13:00:38;14.07;;;12.98;;
44810;SDS011;30526;52.184;4.476;2023-11-21T13:03:07;13.82;;;12.63;;
44810;SDS011;30526;52.184;4.476;2023-11-21T13:08:00;13.20;;;12.00;;
44810;SDS011;30526;52.184;4.476;2023-11-21T13:10:33;13.93;;;12.63;;
44810;SDS011;30526;52.184;4.476;2023-11-21T13:13:01;14.27;;;12.23;;
44810;SDS011;30526;52.184;4.476;2023-11-21T13:15:30;14.40;;;13.10;;
44810;SDS011;30526;52.184;4.476;2023-11-21T13:17:57;13.02;;;12.02;;
44810;SDS011;30526;52.184;4.476;2023-11-21T13:20:23;14.52;;;13.32;;
44810;SDS011;30526;52.184;4.476;2023-11-21T13:22:54;14.20;;;12.88;;
44810;SDS011;30526;52.184;4.476;2023-11-21T13:25:24;13.80;;;12.60;;
44810;SDS011;30526;52.184;4.476;2023-11-21T13:27:57;13.75;;;12.55;;
44810;SDS011;30526;52.184;4.476;2023-11-21T13:30:26;13.55;;;12.20;;
44810;SDS011;30526;52.184;4.476;2023-11-21T13:32:54;12.82;;;11.82;;
44810;SDS011;30526;52.184;4.476;2023-11-21T13:35:22;12.95;;;11.95;;
44810;SDS011;30526;52.184;4.476;2023-11-21T13:37:56;13.85;;;12.40;;
44810;SDS011;30526;52.184;4.476;2023-11-21T13:40:25;13.73;;;12.63;;
44810;SDS011;30526;52.184;4.476;2023-11-21T13:45:18;15.85;;;13.50;;
44810;SDS011;30526;52.184;4.476;2023-11-21T13:47:45;14.45;;;13.15;;
44810;SDS011;30526;52.184;4.476;2023-11-21T13:50:11;14.50;;;13.20;;
44810;SDS011;30526;52.184;4.476;2023-11-21T13:52:42;16.30;;;14.65;;
44810;SDS011;30526;52.184;4.476;2023-11-21T13:55:10;13.57;;;12.38;;
44810;SDS011;30526;52.184;4.476;2023-11-21T13:57:44;15.27;;;13.77;;
44810;SDS011;30526;52.184;4.476;2023-11-21T14:00:14;15.38;;;14.07;;
44810;SDS011;30526;52.184;4.476;2023-11-21T14:03:00;13.57;;;12.48;;
44810;SDS011;30526;52.184;4.476;2023-11-21T14:05:27;13.75;;;12.65;;
44810;SDS011;30526;52.184;4.476;2023-11-21T14:07:55;14.38;;;13.18;;
44810;SDS011;30526;52.184;4.476;2023-11-21T14:10:27;16.27;;;14.60;;
44810;SDS011;30526;52.184;4.476;2023-11-21T14:13:01;16.63;;;14.98;;
44810;SDS011;30526;52.184;4.476;2023-11-21T14:15:27;17.35;;;15.45;;
44810;SDS011;30526;52.184;4.476;2023-11-21T14:17:54;17.73;;;16.00;;
44810;SDS011;30526;52.184;4.476;2023-11-21T14:20:20;17.77;;;15.85;;
44810;SDS011;30526;52.184;4.476;2023-11-21T14:22:46;16.58;;;14.98;;
44810;SDS011;30526;52.184;4.476;2023-11-21T14:25:12;16.58;;;14.65;;
44810;SDS011;30526;52.184;4.476;2023-11-21T14:27:39;16.27;;;14.68;;
44810;SDS011;30526;52.184;4.476;2023-11-21T14:30:05;16.88;;;15.23;;
44810;SDS011;30526;52.184;4.476;2023-11-21T14:32:32;15.50;;;14.00;;
44810;SDS011;30526;52.184;4.476;2023-11-21T14:34:58;17.42;;;15.70;;
44810;SDS011;30526;52.184;4.476;2023-11-21T14:37:24;18.45;;;16.25;;
44810;SDS011;30526;52.184;4.476;2023-11-21T14:39:50;16.90;;;15.30;;
44810;SDS011;30526;52.184;4.476;2023-11-21T14:42:16;17.77;;;15.88;;
44810;SDS011;30526;52.184;4.476;2023-11-21T14:44:49;18.33;;;16.52;;